sensor_id;sensor_type;location;lat;lon;timestamp;P1;durP1;ratioP1;P2;durP2;ratioP2
40256;SDS011;25977;45.462;9.210;2022-11-20T00:00:45;27.38;;;15.30;;
40256;SDS011;25977;45.462;9.210;2022-11-20T00:03:12;30.00;;;16.52;;
40256;SDS011;25977;45.462;9.210;2022-11-20T00:05:37;44.92;;;19.85;;
40256;SDS011;25977;45.462;9.210;2022-11-20T00:08:03;37.97;;;19.13;;
40256;SDS011;25977;45.462;9.210;2022-11-20T00:10:29;39.38;;;19.38;;
40256;SDS011;25977;45.462;9.210;2022-11-20T00:12:55;36.65;;;18.52;;
40256;SDS011;25977;45.462;9.210;2022-11-20T00:15:22;41.13;;;18.40;;
40256;SDS011;25977;45.462;9.210;2022-11-20T00:17:48;38.80;;;19.95;;
40256;SDS011;25977;45.462;9.210;2022-11-20T00:20:14;35.42;;;18.85;;
40256;SDS011;25977;45.462;9.210;2022-11-20T00:22:39;34.03;;;18.70;;
40256;SDS011;25977;45.462;9.210;2022-11-20T00:25:05;40.13;;;20.05;;
40256;SDS011;25977;45.462;9.210;2022-11-20T00:27:31;36.75;;;19.13;;
40256;SDS011;25977;45.462;9.210;2022-11-20T00:29:57;31.98;;;19.02;;
40256;SDS011;25977;45.462;9.210;2022-11-20T00:32:22;36.83;;;20.17;;
40256;SDS011;25977;45.462;9.210;2022-11-20T00:34:48;35.38;;;19.38;;
40256;SDS011;25977;45.462;9.210;2022-11-20T00:37:15;36.95;;;18.27;;
40256;SDS011;25977;45.462;9.210;2022-11-20T00:39:40;33.60;;;18.00;;
40256;SDS011;25977;45.462;9.210;2022-11-20T00:42:06;34.08;;;17.10;;
40256;SDS011;25977;45.462;9.210;2022-11-20T00:44:32;32.30;;;18.20;;
40256;SDS011;25977;45.462;9.210;2022-11-20T00:46:57;36.17;;;18.27;;
40256;SDS011;25977;45.462;9.210;2022-11-20T00:49:23;43.92;;;18.58;;
40256;SDS011;25977;45.462;9.210;2022-11-20T00:51:49;33.83;;;18.05;;
40256;SDS011;25977;45.462;9.210;2022-11-20T00:54:14;35.88;;;17.98;;
40256;SDS011;25977;45.462;9.210;2022-11-20T00:56:40;32.75;;;17.92;;
40256;SDS011;25977;45.462;9.210;2022-11-20T00:59:06;33.20;;;18.85;;
40256;SDS011;25977;45.462;9.210;2022-11-20T01:01:33;35.70;;;18.60;;
40256;SDS011;25977;45.462;9.210;2022-11-20T01:04:00;39.13;;;18.92;;
40256;SDS011;25977;45.462;9.210;2022-11-20T01:06:28;33.92;;;18.83;;
40256;SDS011;25977;45.462;9.210;2022-11-20T01:08:57;35.75;;;19.70;;
40256;SDS011;25977;45.462;9.210;2022-11-20T01:11:28;34.33;;;18.05;;
40256;SDS011;25977;45.462;9.210;2022-11-20T01:13:57;34.85;;;18.77;;
40256;SDS011;25977;45.462;9.210;2022-11-20T01:16:25;34.90;;;19.05;;
40256;SDS011;25977;45.462;9.210;2022-11-20T01:19:12;31.08;;;17.77;;
40256;SDS011;25977;45.462;9.210;2022-11-20T01:21:41;34.47;;;17.77;;
40256;SDS011;25977;45.462;9.210;2022-11-20T01:24:10;36.83;;;18.27;;
40256;SDS011;25977;45.462;9.210;2022-11-20T01:26:38;27.58;;;17.95;;
40256;SDS011;25977;45.462;9.210;2022-11-20T01:29:06;27.77;;;16.25;;
40256;SDS011;25977;45.462;9.210;2022-11-20T01:31:36;32.47;;;17.15;;
40256;SDS011;25977;45.462;9.210;2022-11-20T01:34:06;26.90;;;15.10;;
40256;SDS011;25977;45.462;9.210;2022-11-20T01:36:35;24.98;;;15.05;;
40256;SDS011;25977;45.462;9.210;2022-11-20T01:39:03;24.65;;;14.43;;
40256;SDS011;25977;45.462;9.210;2022-11-20T01:41:31;27.85;;;14.90;;
40256;SDS011;25977;45.462;9.210;2022-11-20T01:44:19;29.38;;;15.63;;
40256;SDS011;25977;45.462;9.210;2022-11-20T01:46:51;26.92;;;14.80;;
40256;SDS011;25977;45.462;9.210;2022-11-20T01:51:58;24.63;;;15.48;;
40256;SDS011;25977;45.462;9.210;2022-11-20T01:54:34;24.35;;;15.07;;
40256;SDS011;25977;45.462;9.210;2022-11-20T01:57:05;23.65;;;14.75;;
40256;SDS011;25977;45.462;9.210;2022-11-20T01:59:34;26.48;;;14.82;;
40256;SDS011;25977;45.462;9.210;2022-11-20T02:02:04;25.17;;;14.18;;
40256;SDS011;25977;45.462;9.210;2022-11-20T02:04:30;21.50;;;14.90;;
40256;SDS011;25977;45.462;9.210;2022-11-20T02:07:00;26.05;;;13.70;;
40256;SDS011;25977;45.462;9.210;2022-11-20T02:09:27;21.83;;;13.07;;
40256;SDS011;25977;45.462;9.210;2022-11-20T02:11:53;23.75;;;14.35;;
40256;SDS011;25977;45.462;9.210;2022-11-20T02:14:20;20.55;;;13.20;;
40256;SDS011;25977;45.462;9.210;2022-11-20T02:16:47;22.42;;;13.18;;
40256;SDS011;25977;45.462;9.210;2022-11-20T02:24:19;23.08;;;11.88;;
40256;SDS011;25977;45.462;9.210;2022-11-20T02:29:16;19.25;;;10.50;;
40256;SDS011;25977;45.462;9.210;2022-11-20T02:31:49;21.10;;;11.95;;
40256;SDS011;25977;45.462;9.210;2022-11-20T02:34:16;19.05;;;10.85;;
40256;SDS011;25977;45.462;9.210;2022-11-20T02:36:42;16.15;;;10.57;;
40256;SDS011;25977;45.462;9.210;2022-11-20T02:39:09;15.27;;;10.57;;
40256;SDS011;25977;45.462;9.210;2022-11-20T02:41:37;15.02;;;10.20;;
40256;SDS011;25977;45.462;9.210;2022-11-20T02:44:03;16.95;;;9.50;;
40256;SDS011;25977;45.462;9.210;2022-11-20T02:46:31;14.93;;;9.65;;
40256;SDS011;25977;45.462;9.210;2022-11-20T02:48:57;19.20;;;11.70;;
40256;SDS011;25977;45.462;9.210;2022-11-20T02:51:23;16.63;;;10.00;;
40256;SDS011;25977;45.462;9.210;2022-11-20T02:53:49;17.08;;;10.15;;
40256;SDS011;25977;45.462;9.210;2022-11-20T02:56:15;13.82;;;9.48;;
40256;SDS011;25977;45.462;9.210;2022-11-20T02:58:41;16.08;;;9.63;;
40256;SDS011;25977;45.462;9.210;2022-11-20T03:01:06;17.23;;;10.23;;
40256;SDS011;25977;45.462;9.210;2022-11-20T03:03:32;15.20;;;9.27;;
40256;SDS011;25977;45.462;9.210;2022-11-20T03:05:58;16.58;;;10.43;;
40256;SDS011;25977;45.462;9.210;2022-11-20T03:08:25;16.42;;;9.75;;
40256;SDS011;25977;45.462;9.210;2022-11-20T03:10:51;14.27;;;9.50;;
40256;SDS011;25977;45.462;9.210;2022-11-20T03:13:17;14.95;;;9.57;;
40256;SDS011;25977;45.462;9.210;2022-11-20T03:15:43;15.10;;;8.82;;
40256;SDS011;25977;45.462;9.210;2022-11-20T03:18:09;14.07;;;9.55;;
40256;SDS011;25977;45.462;9.210;2022-11-20T03:20:35;12.05;;;9.60;;
40256;SDS011;25977;45.462;9.210;2022-11-20T03:23:00;14.07;;;8.30;;
40256;SDS011;25977;45.462;9.210;2022-11-20T03:25:26;15.02;;;8.63;;
40256;SDS011;25977;45.462;9.210;2022-11-20T03:27:53;17.42;;;9.32;;
40256;SDS011;25977;45.462;9.210;2022-11-20T03:30:19;15.55;;;9.45;;
40256;SDS011;25977;45.462;9.210;2022-11-20T03:32:45;19.45;;;10.05;;
40256;SDS011;25977;45.462;9.210;2022-11-20T03:35:11;17.25;;;10.15;;
40256;SDS011;25977;45.462;9.210;2022-11-20T03:37:36;13.95;;;8.82;;
40256;SDS011;25977;45.462;9.210;2022-11-20T03:40:02;16.85;;;11.10;;
40256;SDS011;25977;45.462;9.210;2022-11-20T03:42:29;12.93;;;10.27;;
40256;SDS011;25977;45.462;9.210;2022-11-20T03:45:16;17.77;;;9.65;;
40256;SDS011;25977;45.462;9.210;2022-11-20T03:47:42;11.90;;;8.07;;
40256;SDS011;25977;45.462;9.210;2022-11-20T03:50:10;13.23;;;9.90;;
40256;SDS011;25977;45.462;9.210;2022-11-20T03:52:40;17.10;;;9.23;;
40256;SDS011;25977;45.462;9.210;2022-11-20T03:55:07;14.27;;;9.55;;
40256;SDS011;25977;45.462;9.210;2022-11-20T03:57:33;14.00;;;9.63;;
40256;SDS011;25977;45.462;9.210;2022-11-20T03:59:58;11.90;;;8.52;;
40256;SDS011;25977;45.462;9.210;2022-11-20T04:02:24;13.95;;;8.43;;
40256;SDS011;25977;45.462;9.210;2022-11-20T04:04:50;15.20;;;9.05;;
40256;SDS011;25977;45.462;9.210;2022-11-20T04:07:15;13.40;;;9.30;;
40256;SDS011;25977;45.462;9.210;2022-11-20T04:09:41;14.70;;;8.18;;
40256;SDS011;25977;45.462;9.210;2022-11-20T04:12:07;14.27;;;9.50;;
40256;SDS011;25977;45.462;9.210;2022-11-20T04:14:32;12.25;;;8.70;;
40256;SDS011;25977;45.462;9.210;2022-11-20T04:16:58;13.82;;;9.43;;
40256;SDS011;25977;45.462;9.210;2022-11-20T04:19:24;18.80;;;8.15;;
40256;SDS011;25977;45.462;9.210;2022-11-20T04:21:49;9.45;;;8.05;;
40256;SDS011;25977;45.462;9.210;2022-11-20T04:24:15;11.30;;;9.00;;
40256;SDS011;25977;45.462;9.210;2022-11-20T04:26:41;12.27;;;7.55;;
40256;SDS011;25977;45.462;9.210;2022-11-20T04:29:09;11.55;;;7.88;;
40256;SDS011;25977;45.462;9.210;2022-11-20T04:31:35;10.27;;;8.00;;
40256;SDS011;25977;45.462;9.210;2022-11-20T04:34:02;11.55;;;7.15;;
40256;SDS011;25977;45.462;9.210;2022-11-20T04:36:29;11.20;;;7.78;;
40256;SDS011;25977;45.462;9.210;2022-11-20T04:39:00;11.52;;;7.25;;
40256;SDS011;25977;45.462;9.210;2022-11-20T04:41:31;9.60;;;7.00;;
40256;SDS011;25977;45.462;9.210;2022-11-20T04:43:59;15.45;;;7.90;;
40256;SDS011;25977;45.462;9.210;2022-11-20T04:46:33;11.85;;;8.18;;
40256;SDS011;25977;45.462;9.210;2022-11-20T04:49:04;10.93;;;7.22;;
40256;SDS011;25977;45.462;9.210;2022-11-20T04:51:30;10.15;;;7.18;;
40256;SDS011;25977;45.462;9.210;2022-11-20T04:53:57;9.77;;;6.82;;
40256;SDS011;25977;45.462;9.210;2022-11-20T04:56:22;9.32;;;7.57;;
40256;SDS011;25977;45.462;9.210;2022-11-20T04:58:48;10.32;;;7.55;;
40256;SDS011;25977;45.462;9.210;2022-11-20T05:03:44;9.52;;;7.07;;
40256;SDS011;25977;45.462;9.210;2022-11-20T05:06:11;12.18;;;7.25;;
40256;SDS011;25977;45.462;9.210;2022-11-20T05:08:38;9.57;;;6.38;;
40256;SDS011;25977;45.462;9.210;2022-11-20T05:11:09;10.15;;;6.78;;
40256;SDS011;25977;45.462;9.210;2022-11-20T05:13:37;10.38;;;7.47;;
40256;SDS011;25977;45.462;9.210;2022-11-20T05:16:05;9.45;;;7.40;;
40256;SDS011;25977;45.462;9.210;2022-11-20T05:18:35;13.75;;;7.72;;
40256;SDS011;25977;45.462;9.210;2022-11-20T05:21:02;9.65;;;7.75;;
40256;SDS011;25977;45.462;9.210;2022-11-20T05:23:30;11.90;;;8.27;;
40256;SDS011;25977;45.462;9.210;2022-11-20T05:25:57;11.45;;;7.43;;
40256;SDS011;25977;45.462;9.210;2022-11-20T05:28:24;11.35;;;8.73;;
40256;SDS011;25977;45.462;9.210;2022-11-20T05:30:50;13.30;;;9.57;;
40256;SDS011;25977;45.462;9.210;2022-11-20T05:33:17;13.20;;;9.02;;
40256;SDS011;25977;45.462;9.210;2022-11-20T05:35:43;16.45;;;9.23;;
40256;SDS011;25977;45.462;9.210;2022-11-20T05:38:09;10.93;;;8.80;;
40256;SDS011;25977;45.462;9.210;2022-11-20T05:40:36;13.45;;;8.68;;
40256;SDS011;25977;45.462;9.210;2022-11-20T05:43:01;9.00;;;8.10;;
40256;SDS011;25977;45.462;9.210;2022-11-20T05:45:27;9.70;;;7.85;;
40256;SDS011;25977;45.462;9.210;2022-11-20T05:47:53;11.55;;;7.72;;
40256;SDS011;25977;45.462;9.210;2022-11-20T05:50:22;15.52;;;8.48;;
40256;SDS011;25977;45.462;9.210;2022-11-20T05:52:48;12.43;;;7.15;;
40256;SDS011;25977;45.462;9.210;2022-11-20T05:55:13;13.32;;;7.50;;
40256;SDS011;25977;45.462;9.210;2022-11-20T05:57:39;10.18;;;6.20;;
40256;SDS011;25977;45.462;9.210;2022-11-20T06:00:05;8.65;;;6.35;;
40256;SDS011;25977;45.462;9.210;2022-11-20T06:02:34;11.75;;;7.20;;
40256;SDS011;25977;45.462;9.210;2022-11-20T06:05:00;9.23;;;7.13;;
40256;SDS011;25977;45.462;9.210;2022-11-20T06:07:25;10.95;;;7.80;;
40256;SDS011;25977;45.462;9.210;2022-11-20T06:09:51;14.98;;;8.48;;
40256;SDS011;25977;45.462;9.210;2022-11-20T06:12:18;10.35;;;7.22;;
40256;SDS011;25977;45.462;9.210;2022-11-20T06:14:43;8.15;;;6.50;;
40256;SDS011;25977;45.462;9.210;2022-11-20T06:17:09;12.80;;;8.40;;
40256;SDS011;25977;45.462;9.210;2022-11-20T06:19:34;11.35;;;7.70;;
40256;SDS011;25977;45.462;9.210;2022-11-20T06:22:00;10.90;;;7.85;;
40256;SDS011;25977;45.462;9.210;2022-11-20T06:24:26;14.75;;;7.82;;
40256;SDS011;25977;45.462;9.210;2022-11-20T06:26:51;10.35;;;7.95;;
40256;SDS011;25977;45.462;9.210;2022-11-20T06:29:17;11.70;;;8.20;;
40256;SDS011;25977;45.462;9.210;2022-11-20T06:31:43;12.93;;;7.50;;
40256;SDS011;25977;45.462;9.210;2022-11-20T06:34:09;13.77;;;8.60;;
40256;SDS011;25977;45.462;9.210;2022-11-20T06:36:35;13.27;;;8.63;;
40256;SDS011;25977;45.462;9.210;2022-11-20T06:39:01;15.65;;;9.57;;
40256;SDS011;25977;45.462;9.210;2022-11-20T06:41:27;9.82;;;8.45;;
40256;SDS011;25977;45.462;9.210;2022-11-20T06:43:53;11.98;;;8.93;;
40256;SDS011;25977;45.462;9.210;2022-11-20T06:46:19;14.48;;;9.10;;
40256;SDS011;25977;45.462;9.210;2022-11-20T06:48:45;13.20;;;9.27;;
40256;SDS011;25977;45.462;9.210;2022-11-20T06:51:12;13.48;;;8.73;;
40256;SDS011;25977;45.462;9.210;2022-11-20T06:53:38;15.20;;;8.75;;
40256;SDS011;25977;45.462;9.210;2022-11-20T06:56:04;17.73;;;9.48;;
40256;SDS011;25977;45.462;9.210;2022-11-20T06:58:31;14.93;;;8.68;;
40256;SDS011;25977;45.462;9.210;2022-11-20T07:01:02;14.13;;;9.13;;
40256;SDS011;25977;45.462;9.210;2022-11-20T07:03:29;11.88;;;7.60;;
40256;SDS011;25977;45.462;9.210;2022-11-20T07:05:55;14.18;;;8.32;;
40256;SDS011;25977;45.462;9.210;2022-11-20T07:08:22;12.65;;;9.02;;
40256;SDS011;25977;45.462;9.210;2022-11-20T07:10:47;11.55;;;7.78;;
40256;SDS011;25977;45.462;9.210;2022-11-20T07:13:13;12.70;;;8.02;;
40256;SDS011;25977;45.462;9.210;2022-11-20T07:15:39;12.50;;;8.68;;
40256;SDS011;25977;45.462;9.210;2022-11-20T07:18:05;11.27;;;8.77;;
40256;SDS011;25977;45.462;9.210;2022-11-20T07:20:31;10.30;;;7.78;;
40256;SDS011;25977;45.462;9.210;2022-11-20T07:22:57;10.45;;;7.75;;
40256;SDS011;25977;45.462;9.210;2022-11-20T07:25:26;8.13;;;6.88;;
40256;SDS011;25977;45.462;9.210;2022-11-20T07:28:00;18.35;;;7.15;;
40256;SDS011;25977;45.462;9.210;2022-11-20T07:30:26;10.10;;;7.47;;
40256;SDS011;25977;45.462;9.210;2022-11-20T07:32:53;11.85;;;6.95;;
40256;SDS011;25977;45.462;9.210;2022-11-20T07:35:20;9.65;;;6.00;;
40256;SDS011;25977;45.462;9.210;2022-11-20T07:37:47;8.20;;;6.00;;
40256;SDS011;25977;45.462;9.210;2022-11-20T07:40:13;10.48;;;6.65;;
40256;SDS011;25977;45.462;9.210;2022-11-20T07:42:49;9.93;;;6.50;;
40256;SDS011;25977;45.462;9.210;2022-11-20T07:45:16;8.02;;;6.57;;
40256;SDS011;25977;45.462;9.210;2022-11-20T07:47:43;10.02;;;6.57;;
40256;SDS011;25977;45.462;9.210;2022-11-20T07:50:09;9.77;;;6.63;;
40256;SDS011;25977;45.462;9.210;2022-11-20T07:52:35;8.07;;;6.70;;
40256;SDS011;25977;45.462;9.210;2022-11-20T07:55:01;9.80;;;7.38;;
40256;SDS011;25977;45.462;9.210;2022-11-20T07:57:27;9.80;;;5.90;;
40256;SDS011;25977;45.462;9.210;2022-11-20T07:59:52;8.73;;;6.50;;
40256;SDS011;25977;45.462;9.210;2022-11-20T08:02:18;13.32;;;6.95;;
40256;SDS011;25977;45.462;9.210;2022-11-20T08:04:44;11.80;;;7.47;;
40256;SDS011;25977;45.462;9.210;2022-11-20T08:07:09;10.07;;;7.25;;
40256;SDS011;25977;45.462;9.210;2022-11-20T08:09:35;11.80;;;6.60;;
40256;SDS011;25977;45.462;9.210;2022-11-20T08:12:01;12.18;;;7.13;;
40256;SDS011;25977;45.462;9.210;2022-11-20T08:14:45;11.45;;;7.90;;
40256;SDS011;25977;45.462;9.210;2022-11-20T08:17:11;11.95;;;7.35;;
40256;SDS011;25977;45.462;9.210;2022-11-20T08:19:37;8.05;;;7.22;;
40256;SDS011;25977;45.462;9.210;2022-11-20T08:22:03;10.70;;;8.57;;
40256;SDS011;25977;45.462;9.210;2022-11-20T08:24:28;10.77;;;8.18;;
40256;SDS011;25977;45.462;9.210;2022-11-20T08:26:56;8.50;;;6.60;;
40256;SDS011;25977;45.462;9.210;2022-11-20T08:29:24;11.35;;;7.00;;
40256;SDS011;25977;45.462;9.210;2022-11-20T08:31:51;9.80;;;7.55;;
40256;SDS011;25977;45.462;9.210;2022-11-20T08:34:17;7.70;;;6.95;;
40256;SDS011;25977;45.462;9.210;2022-11-20T08:36:42;8.23;;;6.40;;
40256;SDS011;25977;45.462;9.210;2022-11-20T08:39:10;9.93;;;7.28;;
40256;SDS011;25977;45.462;9.210;2022-11-20T08:41:37;11.30;;;6.55;;
40256;SDS011;25977;45.462;9.210;2022-11-20T08:44:03;7.25;;;6.47;;
40256;SDS011;25977;45.462;9.210;2022-11-20T08:46:35;7.75;;;6.20;;
40256;SDS011;25977;45.462;9.210;2022-11-20T08:49:03;8.15;;;6.47;;
40256;SDS011;25977;45.462;9.210;2022-11-20T08:51:29;11.27;;;7.32;;
40256;SDS011;25977;45.462;9.210;2022-11-20T08:53:55;11.43;;;7.43;;
40256;SDS011;25977;45.462;9.210;2022-11-20T08:56:21;9.63;;;6.88;;
40256;SDS011;25977;45.462;9.210;2022-11-20T08:58:49;10.18;;;7.95;;
40256;SDS011;25977;45.462;9.210;2022-11-20T09:01:16;13.82;;;8.45;;
40256;SDS011;25977;45.462;9.210;2022-11-20T09:03:42;12.25;;;7.68;;
40256;SDS011;25977;45.462;9.210;2022-11-20T09:06:07;11.75;;;8.88;;
40256;SDS011;25977;45.462;9.210;2022-11-20T09:08:33;9.85;;;8.27;;
40256;SDS011;25977;45.462;9.210;2022-11-20T09:11:01;11.95;;;8.48;;
40256;SDS011;25977;45.462;9.210;2022-11-20T09:13:27;10.32;;;7.55;;
40256;SDS011;25977;45.462;9.210;2022-11-20T09:18:24;8.43;;;6.75;;
40256;SDS011;25977;45.462;9.210;2022-11-20T09:20:51;11.43;;;7.80;;
40256;SDS011;25977;45.462;9.210;2022-11-20T09:23:21;13.32;;;8.15;;
40256;SDS011;25977;45.462;9.210;2022-11-20T09:25:46;13.13;;;8.18;;
40256;SDS011;25977;45.462;9.210;2022-11-20T09:28:12;9.63;;;7.13;;
40256;SDS011;25977;45.462;9.210;2022-11-20T09:30:38;12.95;;;7.32;;
40256;SDS011;25977;45.462;9.210;2022-11-20T09:33:05;7.57;;;6.80;;
40256;SDS011;25977;45.462;9.210;2022-11-20T09:35:31;11.13;;;7.85;;
40256;SDS011;25977;45.462;9.210;2022-11-20T09:37:58;12.57;;;7.40;;
40256;SDS011;25977;45.462;9.210;2022-11-20T09:40:24;11.27;;;6.97;;
40256;SDS011;25977;45.462;9.210;2022-11-20T09:46:04;8.23;;;6.95;;
40256;SDS011;25977;45.462;9.210;2022-11-20T09:56:38;7.88;;;6.20;;
40256;SDS011;25977;45.462;9.210;2022-11-20T09:59:07;10.30;;;7.68;;
40256;SDS011;25977;45.462;9.210;2022-11-20T10:01:47;15.63;;;5.95;;
40256;SDS011;25977;45.462;9.210;2022-11-20T10:04:17;8.13;;;6.00;;
40256;SDS011;25977;45.462;9.210;2022-11-20T10:23:05;7.03;;;5.85;;
40256;SDS011;25977;45.462;9.210;2022-11-20T10:26:02;5.55;;;5.05;;
40256;SDS011;25977;45.462;9.210;2022-11-20T10:31:39;6.20;;;5.63;;
40256;SDS011;25977;45.462;9.210;2022-11-20T10:37:28;6.75;;;6.13;;
40256;SDS011;25977;45.462;9.210;2022-11-20T10:39:53;5.55;;;5.10;;
40256;SDS011;25977;45.462;9.210;2022-11-20T10:42:26;7.75;;;5.47;;
40256;SDS011;25977;45.462;9.210;2022-11-20T10:45:15;7.32;;;4.80;;
40256;SDS011;25977;45.462;9.210;2022-11-20T10:47:54;7.20;;;5.60;;
40256;SDS011;25977;45.462;9.210;2022-11-20T10:50:33;5.38;;;4.85;;
40256;SDS011;25977;45.462;9.210;2022-11-20T10:53:06;9.93;;;6.57;;
40256;SDS011;25977;45.462;9.210;2022-11-20T10:55:59;5.97;;;5.38;;
40256;SDS011;25977;45.462;9.210;2022-11-20T11:01:05;5.10;;;4.68;;
40256;SDS011;25977;45.462;9.210;2022-11-20T11:03:38;6.07;;;5.47;;
40256;SDS011;25977;45.462;9.210;2022-11-20T11:06:10;11.25;;;5.90;;
40256;SDS011;25977;45.462;9.210;2022-11-20T11:08:49;5.13;;;4.32;;
40256;SDS011;25977;45.462;9.210;2022-11-20T11:14:14;7.75;;;4.57;;
40256;SDS011;25977;45.462;9.210;2022-11-20T11:16:50;5.35;;;4.85;;
40256;SDS011;25977;45.462;9.210;2022-11-20T11:19:17;5.57;;;4.45;;
40256;SDS011;25977;45.462;9.210;2022-11-20T11:22:01;7.75;;;5.53;;
40256;SDS011;25977;45.462;9.210;2022-11-20T11:24:38;7.22;;;5.82;;
40256;SDS011;25977;45.462;9.210;2022-11-20T11:27:16;7.13;;;6.43;;
40256;SDS011;25977;45.462;9.210;2022-11-20T11:29:43;7.05;;;5.75;;
40256;SDS011;25977;45.462;9.210;2022-11-20T11:32:14;9.52;;;5.45;;
40256;SDS011;25977;45.462;9.210;2022-11-20T11:34:58;6.90;;;4.93;;
40256;SDS011;25977;45.462;9.210;2022-11-20T11:37:32;9.25;;;5.43;;
40256;SDS011;25977;45.462;9.210;2022-11-20T11:40:03;7.95;;;5.18;;
40256;SDS011;25977;45.462;9.210;2022-11-20T11:42:29;6.50;;;4.70;;
40256;SDS011;25977;45.462;9.210;2022-11-20T11:44:56;7.07;;;5.43;;
40256;SDS011;25977;45.462;9.210;2022-11-20T11:47:37;7.78;;;5.35;;
40256;SDS011;25977;45.462;9.210;2022-11-20T11:50:13;7.95;;;5.40;;
40256;SDS011;25977;45.462;9.210;2022-11-20T12:00:58;7.50;;;6.07;;
40256;SDS011;25977;45.462;9.210;2022-11-20T12:03:52;6.68;;;5.88;;
40256;SDS011;25977;45.462;9.210;2022-11-20T12:06:29;5.75;;;5.13;;
40256;SDS011;25977;45.462;9.210;2022-11-20T12:14:39;6.25;;;5.13;;
40256;SDS011;25977;45.462;9.210;2022-11-20T12:17:11;7.55;;;5.63;;
40256;SDS011;25977;45.462;9.210;2022-11-20T12:19:38;6.47;;;5.13;;
40256;SDS011;25977;45.462;9.210;2022-11-20T12:22:06;6.57;;;5.82;;
40256;SDS011;25977;45.462;9.210;2022-11-20T12:24:59;6.45;;;5.30;;
40256;SDS011;25977;45.462;9.210;2022-11-20T12:27:55;6.22;;;5.65;;
40256;SDS011;25977;45.462;9.210;2022-11-20T12:30:30;7.40;;;5.55;;
40256;SDS011;25977;45.462;9.210;2022-11-20T12:37:02;10.52;;;5.93;;
40256;SDS011;25977;45.462;9.210;2022-11-20T12:39:33;10.32;;;6.65;;
40256;SDS011;25977;45.462;9.210;2022-11-20T12:56:04;6.10;;;5.35;;
40256;SDS011;25977;45.462;9.210;2022-11-20T12:59:33;8.52;;;5.13;;
40256;SDS011;25977;45.462;9.210;2022-11-20T13:01:45;8.80;;;5.93;;
40256;SDS011;25977;45.462;9.210;2022-11-20T13:04:24;6.47;;;5.30;;
40256;SDS011;25977;45.462;9.210;2022-11-20T13:07:10;5.10;;;4.60;;
40256;SDS011;25977;45.462;9.210;2022-11-20T13:09:48;5.30;;;4.78;;
40256;SDS011;25977;45.462;9.210;2022-11-20T13:12:32;6.50;;;4.47;;
40256;SDS011;25977;45.462;9.210;2022-11-20T13:20:20;5.15;;;4.65;;
40256;SDS011;25977;45.462;9.210;2022-11-20T13:22:47;5.35;;;4.68;;
40256;SDS011;25977;45.462;9.210;2022-11-20T13:25:32;5.65;;;4.00;;
40256;SDS011;25977;45.462;9.210;2022-11-20T13:28:03;4.72;;;4.10;;
40256;SDS011;25977;45.462;9.210;2022-11-20T13:30:50;4.82;;;4.45;;
40256;SDS011;25977;45.462;9.210;2022-11-20T13:33:27;5.30;;;4.40;;
40256;SDS011;25977;45.462;9.210;2022-11-20T13:36:47;5.40;;;4.78;;
40256;SDS011;25977;45.462;9.210;2022-11-20T13:38:49;4.20;;;3.83;;
40256;SDS011;25977;45.462;9.210;2022-11-20T13:41:30;6.78;;;4.72;;
40256;SDS011;25977;45.462;9.210;2022-11-20T13:46:37;5.47;;;4.13;;
40256;SDS011;25977;45.462;9.210;2022-11-20T13:49:06;4.53;;;3.95;;
40256;SDS011;25977;45.462;9.210;2022-11-20T13:54:17;5.55;;;3.95;;
40256;SDS011;25977;45.462;9.210;2022-11-20T14:00:09;4.90;;;4.22;;
40256;SDS011;25977;45.462;9.210;2022-11-20T14:02:41;5.57;;;4.82;;
40256;SDS011;25977;45.462;9.210;2022-11-20T14:05:46;6.50;;;3.85;;
40256;SDS011;25977;45.462;9.210;2022-11-20T14:08:04;5.22;;;4.10;;
40256;SDS011;25977;45.462;9.210;2022-11-20T14:10:32;5.18;;;4.00;;
40256;SDS011;25977;45.462;9.210;2022-11-20T14:12:57;4.45;;;4.05;;
40256;SDS011;25977;45.462;9.210;2022-11-20T14:15:30;3.90;;;3.60;;
40256;SDS011;25977;45.462;9.210;2022-11-20T14:17:58;5.20;;;3.90;;
40256;SDS011;25977;45.462;9.210;2022-11-20T14:20:26;3.72;;;2.90;;
40256;SDS011;25977;45.462;9.210;2022-11-20T14:22:54;5.38;;;3.25;;
40256;SDS011;25977;45.462;9.210;2022-11-20T14:25:23;2.95;;;2.65;;
40256;SDS011;25977;45.462;9.210;2022-11-20T14:27:59;4.97;;;2.70;;
40256;SDS011;25977;45.462;9.210;2022-11-20T14:30:37;3.38;;;2.42;;
40256;SDS011;25977;45.462;9.210;2022-11-20T14:33:09;3.42;;;1.83;;
40256;SDS011;25977;45.462;9.210;2022-11-20T14:35:40;6.32;;;2.50;;
40256;SDS011;25977;45.462;9.210;2022-11-20T14:38:13;3.55;;;1.25;;
40256;SDS011;25977;45.462;9.210;2022-11-20T14:40:42;3.58;;;1.77;;
40256;SDS011;25977;45.462;9.210;2022-11-20T14:43:18;2.55;;;1.85;;
40256;SDS011;25977;45.462;9.210;2022-11-20T14:45:51;2.08;;;1.98;;
40256;SDS011;25977;45.462;9.210;2022-11-20T14:48:32;3.33;;;2.00;;
40256;SDS011;25977;45.462;9.210;2022-11-20T14:51:08;2.58;;;1.50;;
40256;SDS011;25977;45.462;9.210;2022-11-20T14:53:35;2.00;;;1.55;;
40256;SDS011;25977;45.462;9.210;2022-11-20T14:56:01;3.47;;;1.55;;
40256;SDS011;25977;45.462;9.210;2022-11-20T14:58:29;5.97;;;1.80;;
40256;SDS011;25977;45.462;9.210;2022-11-20T15:01:06;1.65;;;1.55;;
40256;SDS011;25977;45.462;9.210;2022-11-20T15:03:38;3.78;;;1.85;;
40256;SDS011;25977;45.462;9.210;2022-11-20T15:06:06;3.45;;;2.35;;
40256;SDS011;25977;45.462;9.210;2022-11-20T15:08:35;2.63;;;2.05;;
40256;SDS011;25977;45.462;9.210;2022-11-20T15:11:01;3.22;;;2.05;;
40256;SDS011;25977;45.462;9.210;2022-11-20T15:13:37;11.38;;;2.42;;
40256;SDS011;25977;45.462;9.210;2022-11-20T15:16:08;2.97;;;2.00;;
40256;SDS011;25977;45.462;9.210;2022-11-20T15:21:18;3.15;;;1.90;;
40256;SDS011;25977;45.462;9.210;2022-11-20T15:23:48;3.08;;;2.10;;
40256;SDS011;25977;45.462;9.210;2022-11-20T15:26:20;2.10;;;1.85;;
40256;SDS011;25977;45.462;9.210;2022-11-20T15:28:52;5.05;;;2.58;;
40256;SDS011;25977;45.462;9.210;2022-11-20T15:31:20;2.45;;;2.20;;
40256;SDS011;25977;45.462;9.210;2022-11-20T15:33:48;2.95;;;2.55;;
40256;SDS011;25977;45.462;9.210;2022-11-20T15:36:14;3.55;;;2.58;;
40256;SDS011;25977;45.462;9.210;2022-11-20T15:38:40;2.78;;;2.58;;
40256;SDS011;25977;45.462;9.210;2022-11-20T15:41:05;2.53;;;1.98;;
40256;SDS011;25977;45.462;9.210;2022-11-20T15:43:31;4.60;;;2.50;;
40256;SDS011;25977;45.462;9.210;2022-11-20T15:46:14;20.77;;;3.22;;
40256;SDS011;25977;45.462;9.210;2022-11-20T15:53:34;2.92;;;2.58;;
40256;SDS011;25977;45.462;9.210;2022-11-20T15:56:01;5.05;;;3.55;;
40256;SDS011;25977;45.462;9.210;2022-11-20T15:58:27;4.95;;;2.75;;
40256;SDS011;25977;45.462;9.210;2022-11-20T16:00:53;3.80;;;2.33;;
40256;SDS011;25977;45.462;9.210;2022-11-20T16:03:19;3.65;;;2.60;;
40256;SDS011;25977;45.462;9.210;2022-11-20T16:05:45;3.70;;;2.53;;
40256;SDS011;25977;45.462;9.210;2022-11-20T16:08:10;3.92;;;3.53;;
40256;SDS011;25977;45.462;9.210;2022-11-20T16:10:36;6.03;;;3.45;;
40256;SDS011;25977;45.462;9.210;2022-11-20T16:13:02;2.75;;;2.33;;
40256;SDS011;25977;45.462;9.210;2022-11-20T16:15:50;3.33;;;2.95;;
40256;SDS011;25977;45.462;9.210;2022-11-20T16:18:18;3.65;;;3.30;;
40256;SDS011;25977;45.462;9.210;2022-11-20T16:20:46;5.00;;;3.60;;
40256;SDS011;25977;45.462;9.210;2022-11-20T16:23:17;6.23;;;3.27;;
40256;SDS011;25977;45.462;9.210;2022-11-20T16:25:43;3.83;;;3.45;;
40256;SDS011;25977;45.462;9.210;2022-11-20T16:28:09;4.00;;;3.17;;
40256;SDS011;25977;45.462;9.210;2022-11-20T16:30:36;7.65;;;3.40;;
40256;SDS011;25977;45.462;9.210;2022-11-20T16:33:02;8.60;;;3.88;;
40256;SDS011;25977;45.462;9.210;2022-11-20T16:35:31;7.93;;;4.38;;
40256;SDS011;25977;45.462;9.210;2022-11-20T16:37:58;6.43;;;3.30;;